Terminal Aerodrome Forecast
Issued by NWS Springfield, MO

Home | Current Version | Previous Version | Text Only | Print | Product List | Glossary Off
Versions: 1 2 3 4 5 6 7 8 9 10 11 12 13 14 15 16 17 18

000
FTUS43 KSGF 301700
TAFSGF
TAF
KSGF 301720Z 3018/3118 21012G18KT P6SM SCT100 BKN200
     FM301900 28015G23KT P6SM SCT200
     FM302300 33010KT P6SM SKC WS019/35035KT
     FM311000 34010KT P6SM BKN035 WS019/35035KT
     FM311400 35015G25KT P6SM BKN040 OVC250=

USA.gov is the U.S. government's official web portal to all federal, state and local government web resources and services.